createdAt,value
2019-04-20T00:01:19.945Z,29.80
2019-04-20T00:03:45.645Z,30.00
2019-04-20T00:06:17.667Z,30.00
2019-04-20T00:08:55.670Z,30.60
2019-04-20T00:11:27.331Z,30.00
2019-04-20T00:14:00.147Z,30.10
2019-04-20T00:16:25.059Z,30.10
2019-04-20T00:18:59.112Z,30.20
2019-04-20T00:21:46.936Z,30.20
2019-04-20T00:24:23.362Z,30.30
2019-04-20T00:27:22.422Z,31.00
2019-04-20T00:29:42.344Z,30.30
2019-04-20T00:32:09.851Z,30.60
2019-04-20T00:34:37.262Z,30.90
2019-04-20T00:37:05.309Z,31.80
2019-04-20T00:39:36.170Z,31.40
2019-04-20T00:42:10.859Z,31.20
2019-04-20T00:44:41.277Z,31.30
2019-04-20T00:47:21.873Z,31.80
2019-04-20T00:49:52.288Z,32.10
2019-04-20T00:52:46.998Z,32.60
2019-04-20T00:54:47.250Z,33.00
2019-04-20T00:57:33.823Z,33.10
2019-04-20T01:00:12.547Z,33.30
2019-04-20T01:02:37.168Z,33.50
2019-04-20T01:05:12.824Z,33.70
2019-04-20T01:07:45.108Z,33.50
2019-04-20T01:10:13.186Z,33.40
2019-04-20T01:12:44.491Z,33.70
2019-04-20T01:15:24.416Z,34.20
2019-04-20T01:17:48.278Z,34.10
2019-04-20T01:20:18.527Z,34.30
2019-04-20T01:22:57.250Z,34.30
2019-04-20T01:25:28.310Z,34.10
2019-04-20T01:28:08.100Z,34.10
2019-04-20T01:30:32.348Z,33.90
2019-04-20T01:33:12.473Z,34.80
2019-04-20T01:35:44.123Z,35.20
2019-04-20T01:38:16.872Z,35.40
2019-04-20T01:40:33.717Z,35.60
2019-04-20T01:43:05.574Z,35.50
2019-04-20T01:45:39.154Z,35.70
2019-04-20T01:48:08.283Z,36.00
2019-04-20T01:50:50.007Z,35.60
2019-04-20T01:53:23.761Z,36.10
2019-04-20T01:56:05.404Z,36.50
2019-04-20T01:58:55.457Z,36.50
2019-04-20T02:01:09.824Z,37.00
2019-04-20T02:03:40.196Z,37.40
2019-04-20T02:06:15.048Z,37.90
2019-04-20T02:08:44.147Z,37.80
2019-04-20T02:11:23.141Z,37.80
2019-04-20T02:13:52.846Z,38.10
2019-04-20T02:16:26.454Z,38.10
2019-04-20T02:19:10.785Z,37.80
2019-04-20T02:21:43.372Z,38.20
2019-04-20T02:24:01.293Z,38.60
2019-04-20T02:26:32.326Z,38.50
2019-04-20T02:29:25.065Z,38.80
2019-04-20T02:32:19.854Z,39.20
2019-04-20T02:34:49.606Z,38.90
2019-04-20T02:37:33.440Z,39.10
2019-04-20T02:39:51.450Z,38.90
2019-04-20T02:42:34.582Z,38.90
2019-04-20T02:45:10.875Z,39.00
2019-04-20T02:47:47.393Z,38.80
2019-04-20T02:52:46.150Z,39.50
2019-04-20T02:55:08.746Z,39.70
2019-04-20T03:00:18.933Z,39.00
2019-04-20T03:02:27.232Z,39.00
2019-04-20T03:04:51.024Z,39.10
2019-04-20T03:07:31.454Z,39.40
2019-04-20T03:10:06.541Z,40.20
2019-04-20T03:12:47.790Z,40.90
2019-04-20T03:15:12.906Z,41.30
2019-04-20T03:17:46.323Z,41.50
2019-04-20T03:20:20.238Z,41.70
2019-04-20T03:23:15.328Z,41.90
2019-04-20T03:25:45.060Z,42.10
2019-04-20T03:28:15.511Z,42.30
2019-04-20T03:36:12.146Z,43.50
2019-04-20T03:38:39.453Z,42.90
2019-04-20T03:40:59.506Z,42.90
2019-04-20T03:43:20.212Z,43.00
2019-04-20T03:45:57.727Z,43.20
2019-04-20T03:48:45.270Z,43.40
2019-04-20T03:51:23.921Z,43.60
2019-04-20T03:54:05.433Z,43.50
2019-04-20T03:56:54.677Z,43.40
2019-04-20T03:59:42.129Z,43.60
2019-04-20T04:02:47.421Z,43.70
2019-04-20T04:05:05.523Z,43.90
2019-04-20T04:07:26.779Z,44.30
2019-04-20T04:10:08.540Z,44.70
2019-04-20T04:12:58.887Z,45.00
2019-04-20T04:15:29.676Z,45.30
2019-04-20T04:18:07.544Z,45.50
2019-04-20T04:20:38.746Z,45.60
2019-04-20T04:23:22.228Z,45.90
2019-04-20T04:25:57.935Z,46.10
2019-04-20T04:28:27.278Z,46.70
2019-04-20T04:30:59.430Z,46.00
2019-04-20T04:36:00.501Z,46.00
2019-04-20T04:38:40.552Z,46.10
2019-04-20T04:41:13.971Z,46.20
2019-04-20T04:43:40.099Z,46.40
2019-04-20T04:45:55.514Z,46.60
2019-04-20T04:48:33.566Z,46.70
2019-04-20T04:51:05.141Z,46.70
2019-04-20T04:53:44.230Z,46.70
2019-04-20T04:56:09.417Z,46.80
2019-04-20T04:58:36.273Z,46.60
2019-04-20T05:01:11.784Z,46.60
2019-04-20T05:04:05.281Z,46.60
2019-04-20T05:06:26.450Z,46.90
2019-04-20T05:08:49.907Z,47.00
2019-04-20T05:11:17.197Z,47.20
2019-04-20T05:13:56.923Z,47.40
2019-04-20T05:16:40.991Z,47.50
2019-04-20T05:21:56.558Z,47.10
2019-04-20T05:24:26.920Z,46.80
2019-04-20T05:27:13.423Z,46.50
2019-04-20T05:29:27.072Z,46.20
2019-04-20T05:32:03.509Z,45.80
2019-04-20T05:34:54.014Z,45.50
2019-04-20T05:37:27.514Z,44.90
2019-04-20T05:39:53.227Z,44.60
2019-04-20T05:42:30.304Z,44.30
2019-04-20T05:44:55.736Z,44.10
2019-04-20T05:47:29.131Z,43.90
2019-04-20T05:49:57.074Z,42.90
2019-04-20T05:55:08.810Z,42.30
2019-04-20T05:57:45.278Z,42.10
2019-04-20T06:00:14.184Z,41.60
2019-04-20T06:02:45.128Z,40.90
2019-04-20T06:05:16.071Z,39.60
2019-04-20T06:07:48.855Z,36.30
2019-04-20T06:10:25.999Z,32.70
2019-04-20T06:12:51.687Z,29.40
2019-04-20T06:15:36.689Z,26.50
2019-04-20T06:18:06.336Z,24.30
2019-04-20T06:20:43.760Z,22.30
2019-04-20T06:23:41.348Z,20.60
2019-04-20T06:26:40.004Z,19.20
2019-04-20T06:28:46.343Z,18.60
2019-04-20T06:31:40.692Z,17.50
2019-04-20T06:39:33.226Z,14.80
2019-04-20T06:52:26.191Z,11.70
2019-04-20T06:55:05.246Z,11.20
2019-04-20T06:57:54.185Z,11.00
2019-04-20T07:00:15.338Z,11.10
2019-04-20T07:05:20.690Z,11.30
2019-04-20T07:07:54.740Z,11.30
2019-04-20T07:10:28.615Z,11.60
2019-04-20T07:12:49.341Z,11.50
2019-04-20T07:15:22.876Z,11.80
2019-04-20T07:18:03.212Z,11.70
2019-04-20T07:20:51.669Z,11.80
2019-04-20T07:25:54.188Z,11.20
2019-04-20T07:28:31.474Z,10.70
2019-04-20T07:31:01.720Z,10.00
2019-04-20T07:33:34.916Z,10.60
2019-04-20T07:36:05.785Z,10.30
2019-04-20T07:38:40.483Z,9.80
2019-04-20T07:41:13.832Z,9.30
2019-04-20T07:43:55.691Z,9.80
2019-04-20T07:46:34.837Z,8.90
2019-04-20T07:48:49.080Z,8.50
2019-04-20T07:51:09.082Z,8.30
2019-04-20T07:53:57.514Z,7.80
2019-04-20T07:56:34.665Z,7.40
2019-04-20T07:58:45.949Z,7.30
2019-04-20T08:01:45.298Z,7.00
2019-04-20T08:04:17.461Z,7.10
2019-04-20T08:06:37.886Z,6.90
2019-04-20T08:09:14.552Z,6.60
2019-04-20T08:11:59.624Z,6.50
2019-04-20T08:14:32.187Z,6.60
2019-04-20T08:19:28.674Z,6.10
2019-04-20T08:22:02.588Z,6.70
2019-04-20T08:24:30.539Z,5.90
2019-04-20T08:26:53.085Z,6.00
2019-04-20T08:29:37.851Z,5.90
2019-04-20T08:32:21.428Z,5.90
2019-04-20T08:34:53.534Z,5.90
2019-04-20T08:37:20.644Z,5.90
2019-04-20T08:40:05.320Z,5.70
2019-04-20T08:42:29.866Z,6.10
2019-04-20T08:45:03.960Z,6.00
2019-04-20T08:50:16.781Z,6.10
2019-04-20T08:55:14.574Z,6.00
2019-04-20T08:57:29.493Z,5.50
2019-04-20T09:00:03.105Z,5.40
2019-04-20T09:02:32.678Z,5.30
2019-04-20T09:05:11.671Z,5.30
2019-04-20T09:07:51.313Z,5.50
2019-04-20T09:12:53.244Z,5.30
2019-04-20T09:15:14.752Z,5.10
2019-04-20T09:17:57.555Z,5.10
2019-04-20T09:20:36.763Z,5.20
2019-04-20T09:23:18.187Z,5.40
2019-04-20T09:26:04.753Z,5.40
2019-04-20T09:28:22.364Z,5.60
2019-04-20T09:31:10.869Z,6.20
2019-04-20T09:33:41.790Z,6.10
2019-04-20T09:36:24.174Z,6.50
2019-04-20T09:39:13.819Z,7.00
2019-04-20T09:41:58.831Z,6.90
2019-04-20T09:44:13.406Z,7.20
2019-04-20T09:46:50.922Z,7.70
2019-04-20T09:49:32.473Z,7.80
2019-04-20T09:52:01.465Z,8.40
2019-04-20T09:54:37.040Z,10.00
2019-04-20T09:57:21.852Z,10.70
2019-04-20T09:59:44.694Z,11.20
2019-04-20T10:02:07.051Z,11.60
2019-04-20T10:04:33.383Z,12.20
2019-04-20T10:07:09.607Z,12.80
2019-04-20T10:09:39.850Z,13.30
2019-04-20T10:12:07.892Z,14.00
2019-04-20T10:14:38.849Z,15.90
2019-04-20T10:17:09.680Z,15.70
2019-04-20T10:19:41.329Z,15.70
2019-04-20T10:22:13.061Z,16.20
2019-04-20T10:24:45.921Z,16.10
2019-04-20T10:27:16.788Z,16.50
2019-04-20T10:29:47.078Z,16.90
2019-04-20T10:32:17.844Z,17.20
2019-04-20T10:34:48.562Z,17.20
2019-04-20T10:37:21.642Z,17.20
2019-04-20T10:39:52.410Z,17.30
2019-04-20T10:42:23.862Z,17.10
2019-04-20T10:44:58.629Z,17.20
2019-04-20T10:47:29.259Z,17.60
2019-04-20T10:50:00.848Z,17.80
2019-04-20T10:52:32.086Z,17.80
2019-04-20T10:55:02.898Z,17.90
2019-04-20T10:57:33.438Z,18.10
2019-04-20T11:00:05.888Z,17.80
2019-04-20T11:02:37.188Z,17.70
2019-04-20T11:05:08.697Z,17.90
2019-04-20T11:07:38.977Z,18.30
2019-04-20T11:10:15.735Z,18.70
2019-04-20T11:12:42.222Z,18.80
2019-04-20T11:15:12.601Z,19.30
2019-04-20T11:17:43.541Z,18.90
2019-04-20T11:20:15.104Z,18.90
2019-04-20T11:22:46.374Z,18.60
2019-04-20T11:25:16.767Z,18.50
2019-04-20T11:27:48.104Z,18.70
2019-04-20T11:30:18.451Z,18.80
2019-04-20T11:32:48.660Z,18.50
2019-04-20T11:35:27.857Z,18.60
2019-04-20T11:37:53.313Z,18.70
2019-04-20T11:40:23.758Z,18.70
2019-04-20T11:42:55.304Z,18.40
2019-04-20T11:45:26.723Z,18.60
2019-04-20T11:47:57.826Z,18.80
2019-04-20T11:50:29.554Z,18.70
2019-04-20T11:53:01.583Z,18.70
2019-04-20T11:55:31.884Z,19.50
2019-04-20T11:58:02.113Z,18.90
2019-04-20T12:00:46.932Z,19.00
2019-04-20T12:03:25.042Z,18.90
2019-04-20T12:05:53.690Z,18.80
2019-04-20T12:08:22.924Z,18.70
2019-04-20T12:10:57.660Z,18.80
2019-04-20T12:13:25.201Z,18.50
2019-04-20T12:15:55.984Z,18.50
2019-04-20T12:18:27.610Z,18.80
2019-04-20T12:20:58.880Z,18.70
2019-04-20T12:23:30.381Z,18.60
2019-04-20T12:26:02.002Z,19.10
2019-04-20T12:28:33.619Z,18.60
2019-04-20T12:31:11.931Z,18.60
2019-04-20T12:33:37.509Z,18.70
2019-04-20T12:36:10.250Z,18.50
2019-04-20T12:38:41.331Z,18.40
2019-04-20T12:41:13.978Z,18.50
2019-04-20T12:43:43.674Z,19.10
2019-04-20T12:46:18.348Z,18.80
2019-04-20T12:48:47.543Z,18.80
2019-04-20T12:51:17.882Z,18.90
2019-04-20T12:53:48.759Z,19.00
2019-04-20T12:56:20.312Z,19.00
2019-04-20T12:58:51.647Z,19.50
2019-04-20T13:01:24.503Z,19.30
2019-04-20T13:03:55.642Z,18.90
2019-04-20T13:06:25.912Z,18.90
2019-04-20T13:08:58.954Z,19.30
2019-04-20T13:11:30.804Z,19.30
2019-04-20T13:14:32.659Z,19.10
2019-04-20T13:17:04.184Z,18.90
2019-04-20T13:19:35.561Z,19.50
2019-04-20T13:22:07.231Z,19.00
2019-04-20T13:24:39.094Z,19.00
2019-04-20T13:27:09.379Z,19.10
2019-04-20T13:29:40.557Z,19.10
2019-04-20T13:32:11.748Z,19.00
2019-04-20T13:34:42.321Z,19.00
2019-04-20T13:37:13.852Z,19.60
2019-04-20T13:39:44.769Z,19.20
2019-04-20T13:42:22.395Z,18.80
2019-04-20T13:44:50.689Z,19.00
2019-04-20T13:47:21.066Z,19.00
2019-04-20T13:49:52.484Z,19.00
2019-04-20T13:52:24.731Z,19.10
2019-04-20T13:54:55.892Z,19.10
2019-04-20T13:57:33.516Z,19.00
2019-04-20T14:00:22.164Z,18.90
2019-04-20T14:02:54.175Z,19.30
2019-04-20T14:05:32.815Z,19.10
2019-04-20T14:08:07.846Z,19.20
2019-04-20T14:10:39.591Z,19.10
2019-04-20T14:13:14.815Z,18.80
2019-04-20T14:15:43.491Z,18.80
2019-04-20T14:18:13.697Z,19.00
2019-04-20T14:20:44.629Z,19.10
2019-04-20T14:23:15.080Z,19.00
2019-04-20T14:25:45.283Z,19.00
2019-04-20T14:28:15.546Z,19.30
2019-04-20T14:30:45.967Z,19.70
2019-04-20T14:33:16.933Z,19.80
2019-04-20T14:35:48.340Z,19.70
2019-04-20T14:38:20.134Z,19.70
2019-04-20T14:40:52.567Z,19.70
2019-04-20T14:43:22.838Z,19.10
2019-04-20T14:45:53.072Z,18.80
2019-04-20T14:48:24.905Z,18.80
2019-04-20T14:50:55.981Z,19.10
2019-04-20T14:53:27.854Z,19.20
2019-04-20T14:55:58.060Z,19.20
2019-04-20T14:58:45.260Z,19.30
2019-04-20T15:01:30.346Z,19.40
2019-04-20T15:04:06.862Z,19.20
2019-04-20T15:06:36.723Z,19.10
2019-04-20T15:09:06.589Z,19.20
2019-04-20T15:11:39.680Z,19.20
2019-04-20T15:14:09.061Z,19.40
2019-04-20T15:16:42.670Z,19.40
2019-04-20T15:19:15.724Z,19.00
2019-04-20T15:21:57.755Z,18.90
2019-04-20T15:24:29.296Z,18.80
2019-04-20T15:27:00.564Z,18.70
2019-04-20T15:29:30.789Z,18.90
2019-04-20T15:32:02.114Z,19.20
2019-04-20T15:34:32.982Z,19.30
2019-04-20T15:37:04.388Z,19.20
2019-04-20T15:39:35.361Z,19.00
2019-04-20T15:42:05.573Z,18.90
2019-04-20T15:44:35.796Z,18.80
2019-04-20T15:47:09.031Z,19.00
2019-04-20T15:49:39.934Z,19.10
2019-04-20T15:52:12.441Z,19.00
2019-04-20T15:54:43.338Z,19.20
2019-04-20T15:57:18.333Z,19.40
2019-04-20T15:59:46.491Z,19.50
2019-04-20T16:02:18.287Z,20.20
2019-04-20T16:04:54.326Z,19.70
2019-04-20T16:07:25.485Z,19.80
2019-04-20T16:09:56.883Z,19.40
2019-04-20T16:12:27.217Z,18.90
2019-04-20T16:14:57.724Z,19.10
2019-04-20T16:17:32.753Z,19.30
2019-04-20T16:20:06.441Z,19.40
2019-04-20T16:22:34.156Z,19.30
2019-04-20T16:25:07.565Z,19.20
2019-04-20T16:27:38.189Z,19.30
2019-04-20T16:30:09.695Z,19.50
2019-04-20T16:32:40.697Z,19.60
2019-04-20T16:35:14.100Z,19.50
2019-04-20T16:37:44.832Z,19.70
2019-04-20T16:40:15.624Z,19.80
2019-04-20T16:42:45.975Z,19.90
2019-04-20T16:45:19.057Z,19.90
2019-04-20T16:47:50.187Z,20.20
2019-04-20T16:50:22.712Z,20.40
2019-04-20T16:52:54.961Z,20.60
2019-04-20T16:55:25.382Z,21.00
2019-04-20T16:57:55.733Z,20.70
2019-04-20T17:00:27.413Z,21.00
2019-04-20T17:02:58.477Z,21.10
2019-04-20T17:05:29.231Z,21.20
2019-04-20T17:08:00.896Z,21.20
2019-04-20T17:10:31.200Z,21.10
2019-04-20T17:13:01.878Z,21.00
2019-04-20T17:15:33.922Z,20.90
2019-04-20T17:18:05.595Z,21.00
2019-04-20T17:20:36.798Z,21.00
2019-04-20T17:23:10.612Z,21.00
2019-04-20T17:25:41.827Z,21.10
2019-04-20T17:28:17.406Z,21.10
2019-04-20T17:30:59.167Z,21.20
2019-04-20T17:33:47.177Z,21.20
2019-04-20T17:36:12.444Z,21.30
2019-04-20T17:38:47.118Z,21.30
2019-04-20T17:41:34.121Z,21.30
2019-04-20T17:44:04.173Z,21.40
2019-04-20T17:46:27.284Z,21.50
2019-04-20T17:49:03.130Z,21.60
2019-04-20T17:51:43.125Z,21.70
2019-04-20T17:54:11.112Z,21.90
2019-04-20T17:56:42.536Z,22.10
2019-04-20T17:59:14.321Z,22.40
2019-04-20T18:02:10.261Z,22.50
2019-04-20T18:04:57.488Z,22.60
2019-04-20T18:07:28.428Z,22.80
2019-04-20T18:09:58.787Z,22.90
2019-04-20T18:12:10.452Z,23.20
2019-04-20T18:14:48.954Z,23.50
2019-04-20T18:17:32.085Z,23.70
2019-04-20T18:19:54.552Z,24.10
2019-04-20T18:22:27.767Z,24.10
2019-04-20T18:25:22.349Z,24.30
2019-04-20T18:27:48.316Z,24.40
2019-04-20T18:30:18.694Z,24.40
2019-04-20T18:32:38.255Z,24.60
2019-04-20T18:35:16.334Z,24.80
2019-04-20T18:37:52.513Z,25.10
2019-04-20T18:40:29.000Z,25.40
2019-04-20T18:43:03.947Z,25.40
2019-04-20T18:45:39.729Z,25.50
2019-04-20T18:48:18.429Z,25.70
2019-04-20T18:50:35.580Z,25.70
2019-04-20T18:53:00.108Z,25.90
2019-04-20T18:55:43.106Z,26.30
2019-04-20T18:58:02.456Z,26.30
2019-04-20T19:00:38.868Z,26.20
2019-04-20T19:03:12.072Z,26.30
2019-04-20T19:05:37.965Z,26.60
2019-04-20T19:08:11.785Z,27.10
2019-04-20T19:10:43.623Z,27.30
2019-04-20T19:13:36.776Z,27.40
2019-04-20T19:16:23.005Z,27.50
2019-04-20T19:19:05.362Z,27.70
2019-04-20T19:21:22.967Z,28.00
2019-04-20T19:24:00.286Z,28.00
2019-04-20T19:26:26.735Z,28.00
2019-04-20T19:29:08.766Z,28.10
2019-04-20T19:31:47.456Z,28.20
2019-04-20T19:34:22.415Z,28.20
2019-04-20T19:36:41.758Z,28.10
2019-04-20T19:39:22.954Z,28.10
2019-04-20T19:41:49.481Z,28.00
2019-04-20T19:44:26.757Z,28.00
2019-04-20T19:47:05.078Z,28.10
2019-04-20T19:49:30.473Z,28.20
2019-04-20T19:52:20.474Z,28.10
2019-04-20T19:54:43.090Z,28.00
2019-04-20T19:57:05.633Z,28.10
2019-04-20T19:59:34.293Z,28.10
2019-04-20T20:02:00.112Z,28.10
2019-04-20T20:04:32.206Z,28.00
2019-04-20T20:07:06.766Z,27.90
2019-04-20T20:09:39.582Z,27.90
2019-04-20T20:12:12.273Z,28.00
2019-04-20T20:14:42.942Z,28.00
2019-04-20T20:17:32.855Z,28.30
2019-04-20T20:20:13.105Z,28.20
2019-04-20T20:22:25.405Z,28.50
2019-04-20T20:24:47.158Z,28.60
2019-04-20T20:27:24.030Z,28.90
2019-04-20T20:29:59.480Z,28.70
2019-04-20T20:32:39.104Z,28.80
2019-04-20T20:35:07.228Z,29.00
2019-04-20T20:37:34.684Z,29.00
2019-04-20T20:40:12.945Z,29.30
2019-04-20T20:42:48.647Z,29.60
2019-04-20T20:45:16.137Z,29.60
2019-04-20T20:47:53.959Z,29.50
2019-04-20T20:50:32.635Z,30.30
2019-04-20T20:52:57.793Z,30.70
2019-04-20T20:55:27.192Z,31.10
2019-04-20T20:57:56.295Z,31.50
2019-04-20T21:00:28.280Z,31.40
2019-04-20T21:02:56.703Z,31.30
2019-04-20T21:05:23.976Z,31.40
2019-04-20T21:07:55.449Z,31.80
2019-04-20T21:10:31.991Z,32.30
2019-04-20T21:13:03.104Z,32.70
2019-04-20T21:15:31.196Z,33.00
2019-04-20T21:18:20.599Z,33.30
2019-04-20T21:20:55.133Z,33.60
2019-04-20T21:23:18.782Z,33.60
2019-04-20T21:25:59.010Z,33.70
2019-04-20T21:28:29.342Z,34.10
2019-04-20T21:31:08.133Z,34.20
2019-04-20T21:33:34.900Z,34.30
2019-04-20T21:36:07.113Z,34.40
2019-04-20T21:38:40.796Z,34.00
2019-04-20T21:41:14.466Z,33.70
2019-04-20T21:43:44.390Z,33.30
2019-04-20T21:46:14.079Z,33.60
2019-04-20T21:49:00.597Z,33.60
2019-04-20T21:51:30.403Z,33.70
2019-04-20T21:53:48.477Z,33.70
2019-04-20T21:56:21.613Z,34.10
2019-04-20T21:58:57.528Z,34.50
2019-04-20T22:01:33.647Z,35.00
2019-04-20T22:03:58.539Z,35.60
2019-04-20T22:06:29.025Z,36.10
2019-04-20T22:09:01.075Z,36.30
2019-04-20T22:11:31.592Z,36.50
2019-04-20T22:14:10.768Z,36.40
2019-04-20T22:16:38.877Z,36.50
2019-04-20T22:19:22.338Z,36.70
2019-04-20T22:21:50.345Z,36.60
2019-04-20T22:24:28.440Z,36.30
2019-04-20T22:26:55.022Z,35.90
2019-04-20T22:29:16.191Z,35.60
2019-04-20T22:31:56.464Z,36.00
2019-04-20T22:34:21.404Z,36.10
2019-04-20T22:36:52.093Z,36.20
2019-04-20T22:39:31.948Z,36.00
2019-04-20T22:42:07.386Z,36.30
2019-04-20T22:44:34.835Z,36.50
2019-04-20T22:47:12.296Z,36.80
2019-04-20T22:49:48.262Z,37.40
2019-04-20T22:52:26.642Z,37.60
2019-04-20T22:54:55.037Z,38.30
2019-04-20T22:57:31.575Z,39.30
2019-04-20T22:59:54.314Z,40.00
2019-04-20T23:02:19.882Z,40.30
2019-04-20T23:04:49.016Z,40.60
2019-04-20T23:07:19.249Z,40.70
2019-04-20T23:09:54.214Z,41.00
2019-04-20T23:12:24.852Z,41.40
2019-04-20T23:14:54.344Z,41.90
2019-04-20T23:17:33.537Z,42.40
2019-04-20T23:20:00.926Z,42.50
2019-04-20T23:22:36.872Z,42.20
2019-04-20T23:25:04.880Z,42.50
2019-04-20T23:27:38.316Z,42.20
2019-04-20T23:30:14.684Z,41.20
2019-04-20T23:32:39.919Z,41.30
2019-04-20T23:35:15.015Z,41.90
2019-04-20T23:37:43.783Z,41.60
2019-04-20T23:40:16.391Z,41.80
2019-04-20T23:43:10.206Z,41.70
2019-04-20T23:45:44.148Z,41.50
2019-04-20T23:48:30.557Z,41.50
2019-04-20T23:51:09.909Z,41.10
2019-04-20T23:53:46.516Z,40.50
2019-04-20T23:56:02.008Z,39.10
2019-04-20T23:58:38.219Z,39.50
